createdAt,value
2019-02-02T00:02:04.143Z,28.47
2019-02-02T00:04:38.866Z,26.70
2019-02-02T00:07:13.702Z,28.27
2019-02-02T00:09:48.599Z,27.40
2019-02-02T00:12:23.537Z,28.50
2019-02-02T00:14:58.426Z,29.30
2019-02-02T00:17:33.370Z,27.40
2019-02-02T00:20:08.924Z,31.20
2019-02-02T00:22:43.870Z,29.27
2019-02-02T00:25:18.713Z,27.30
2019-02-02T00:27:54.748Z,27.27
2019-02-02T00:30:29.578Z,27.07
2019-02-02T00:33:04.565Z,28.60
2019-02-02T00:35:39.300Z,28.40
2019-02-02T00:38:14.164Z,28.13
2019-02-02T00:40:48.986Z,28.13
2019-02-02T00:43:23.836Z,27.27
2019-02-02T00:45:58.700Z,30.00
2019-02-02T00:48:33.709Z,27.97
2019-02-02T00:51:08.576Z,28.23
2019-02-02T00:53:43.564Z,27.60
2019-02-02T00:56:19.676Z,28.00
2019-02-02T00:58:54.421Z,28.87
2019-02-02T01:01:29.168Z,26.50
2019-02-02T01:04:04.132Z,28.50
2019-02-02T01:06:38.861Z,30.93
2019-02-02T01:09:21.709Z,29.00
2019-02-02T01:11:56.658Z,29.60
2019-02-02T01:14:31.539Z,29.37
2019-02-02T01:17:06.382Z,29.53
2019-02-02T01:19:41.396Z,28.17
2019-02-02T01:22:16.232Z,27.50
2019-02-02T01:24:50.996Z,29.40
2019-02-02T01:27:25.806Z,29.00
2019-02-02T01:30:00.772Z,29.70
2019-02-02T01:32:36.678Z,31.30
2019-02-02T01:35:12.979Z,30.57
2019-02-02T01:37:48.226Z,30.10
2019-02-02T01:40:24.355Z,32.37
2019-02-02T01:43:00.102Z,33.10
2019-02-02T01:45:34.948Z,31.40
2019-02-02T01:48:09.777Z,31.70
2019-02-02T01:50:44.622Z,32.70
2019-02-02T01:53:19.442Z,31.50
2019-02-02T01:55:55.144Z,31.60
2019-02-02T01:58:29.978Z,29.97
2019-02-02T02:01:04.770Z,30.90
2019-02-02T02:03:39.514Z,30.90
2019-02-02T02:06:14.347Z,29.10
2019-02-02T02:08:49.350Z,32.60
2019-02-02T02:11:24.222Z,30.87
2019-02-02T02:13:58.964Z,30.10
2019-02-02T02:16:34.013Z,30.13
2019-02-02T02:19:09.784Z,29.93
2019-02-02T02:21:44.523Z,29.67
2019-02-02T02:24:19.323Z,31.87
2019-02-02T02:26:54.563Z,28.60
2019-02-02T02:29:29.372Z,30.73
2019-02-02T02:32:04.322Z,30.00
2019-02-02T02:34:39.027Z,30.10
2019-02-02T02:37:18.756Z,30.67
2019-02-02T02:39:53.604Z,31.50
2019-02-02T02:42:28.468Z,29.83
2019-02-02T02:45:03.298Z,31.50
2019-02-02T02:47:38.480Z,30.30
2019-02-02T02:50:15.911Z,30.40
2019-02-02T02:52:50.853Z,29.80
2019-02-02T02:55:25.552Z,30.23
2019-02-02T02:58:00.375Z,31.93
2019-02-02T03:00:35.292Z,28.07
2019-02-02T03:03:14.956Z,30.10
2019-02-02T03:05:52.696Z,30.17
2019-02-02T03:08:27.808Z,30.60
2019-02-02T03:11:07.738Z,32.77
2019-02-02T03:13:44.110Z,33.03
2019-02-02T03:16:19.903Z,30.37
2019-02-02T03:18:54.698Z,31.37
2019-02-02T03:21:29.381Z,31.03
2019-02-02T03:24:04.315Z,29.63
2019-02-02T03:26:39.037Z,32.17
2019-02-02T03:29:13.867Z,33.43
2019-02-02T03:31:49.084Z,32.63
2019-02-02T03:34:24.787Z,30.63
2019-02-02T03:36:59.493Z,31.30
2019-02-02T03:39:36.192Z,32.10
2019-02-02T03:42:11.135Z,31.80
2019-02-02T03:44:45.942Z,33.53
2019-02-02T03:47:26.575Z,33.37
2019-02-02T03:50:02.119Z,33.50
2019-02-02T03:52:36.878Z,31.90
2019-02-02T03:55:14.296Z,31.80
2019-02-02T03:57:49.016Z,34.57
2019-02-02T04:00:24.099Z,33.17
2019-02-02T04:02:58.949Z,33.33
2019-02-02T04:05:33.887Z,31.83
2019-02-02T04:08:10.512Z,33.20
2019-02-02T04:10:45.250Z,31.70
2019-02-02T04:13:21.612Z,31.77
2019-02-02T04:15:58.901Z,33.30
2019-02-02T04:18:36.294Z,33.37
2019-02-02T04:21:15.641Z,34.30
2019-02-02T04:23:52.937Z,33.37
2019-02-02T04:26:30.204Z,34.30
2019-02-02T04:29:17.355Z,31.50
2019-02-02T04:31:42.742Z,35.57
2019-02-02T04:34:17.682Z,34.10
2019-02-02T04:36:52.636Z,34.97
2019-02-02T04:39:27.449Z,31.87
2019-02-02T04:42:02.279Z,33.47
2019-02-02T04:44:37.074Z,33.30
2019-02-02T04:47:11.976Z,34.10
2019-02-02T04:49:46.796Z,33.40
2019-02-02T04:52:21.646Z,34.77
2019-02-02T04:54:56.467Z,31.97
2019-02-02T04:57:31.343Z,32.87
2019-02-02T05:00:08.902Z,31.50
2019-02-02T05:02:43.916Z,33.37
2019-02-02T05:05:18.922Z,33.93
2019-02-02T05:07:53.869Z,32.90
2019-02-02T05:10:28.686Z,32.70
2019-02-02T05:13:03.519Z,35.20
2019-02-02T05:15:38.391Z,33.77
2019-02-02T05:18:13.133Z,33.67
2019-02-02T05:20:47.943Z,32.90
2019-02-02T05:23:24.063Z,33.30
2019-02-02T05:25:58.873Z,34.03
2019-02-02T05:28:34.599Z,34.90
2019-02-02T05:31:09.687Z,32.17
2019-02-02T05:33:44.664Z,34.13
2019-02-02T05:36:19.470Z,30.83
2019-02-02T05:38:55.189Z,34.70
2019-02-02T05:41:30.062Z,33.63
2019-02-02T05:44:04.905Z,31.50
2019-02-02T05:46:39.713Z,34.43
2019-02-02T05:49:14.601Z,33.50
2019-02-02T05:51:49.419Z,31.70
2019-02-02T05:54:24.273Z,32.47
2019-02-02T05:56:59.089Z,32.37
2019-02-02T05:59:33.921Z,33.70
2019-02-02T06:02:09.661Z,32.77
2019-02-02T06:04:44.475Z,34.43
2019-02-02T06:07:19.277Z,32.70
2019-02-02T06:09:54.118Z,33.60
2019-02-02T06:12:28.915Z,33.43
2019-02-02T06:15:03.772Z,33.27
2019-02-02T06:17:38.600Z,31.90
2019-02-02T06:20:13.649Z,34.33
2019-02-02T06:22:48.449Z,33.90
2019-02-02T06:25:23.363Z,32.87
2019-02-02T06:27:58.175Z,33.47
2019-02-02T06:30:33.149Z,32.10
2019-02-02T06:33:08.955Z,33.90
2019-02-02T06:35:43.791Z,33.80
2019-02-02T06:38:18.494Z,34.47
2019-02-02T06:40:53.375Z,35.77
2019-02-02T06:43:30.273Z,33.90
2019-02-02T06:46:04.737Z,35.60
2019-02-02T06:48:39.453Z,33.40
2019-02-02T06:51:16.083Z,33.63
2019-02-02T06:53:56.926Z,33.57
2019-02-02T06:56:32.847Z,34.10
2019-02-02T06:59:07.747Z,32.07
2019-02-02T07:01:42.569Z,35.60
2019-02-02T07:04:17.411Z,33.67
2019-02-02T07:06:52.331Z,34.13
2019-02-02T07:09:27.139Z,38.13
2019-02-02T07:12:01.986Z,37.03
2019-02-02T07:14:36.715Z,36.87
2019-02-02T07:17:11.566Z,35.87
2019-02-02T07:19:46.401Z,38.23
2019-02-02T07:22:21.641Z,34.80
2019-02-02T07:24:56.616Z,36.10
2019-02-02T07:27:31.461Z,38.93
2019-02-02T07:30:12.811Z,36.60
2019-02-02T07:32:47.683Z,37.07
2019-02-02T07:35:23.020Z,36.40
2019-02-02T07:37:58.831Z,35.90
2019-02-02T07:40:33.687Z,36.70
2019-02-02T07:43:08.509Z,35.50
2019-02-02T07:45:43.389Z,36.70
2019-02-02T07:48:18.311Z,35.87
2019-02-02T07:50:55.609Z,36.50
2019-02-02T07:53:30.463Z,35.63
2019-02-02T07:56:05.707Z,34.63
2019-02-02T07:58:40.577Z,34.37
2019-02-02T08:01:15.379Z,36.87
2019-02-02T08:03:53.047Z,33.63
2019-02-02T08:06:27.936Z,36.20
2019-02-02T08:09:03.546Z,36.10
2019-02-02T08:11:38.342Z,36.87
2019-02-02T08:14:19.211Z,35.63
2019-02-02T08:16:54.013Z,35.27
2019-02-02T08:19:32.917Z,37.83
2019-02-02T08:22:09.413Z,34.67
2019-02-02T08:24:44.427Z,33.97
2019-02-02T08:27:19.224Z,36.60
2019-02-02T08:29:54.094Z,35.10
2019-02-02T08:32:28.890Z,35.67
2019-02-02T08:35:03.737Z,35.13
2019-02-02T08:37:39.947Z,34.87
2019-02-02T08:40:17.898Z,35.23
2019-02-02T08:42:52.906Z,34.93
2019-02-02T08:45:27.890Z,34.17
2019-02-02T08:48:02.827Z,34.83
2019-02-02T08:50:39.610Z,36.20
2019-02-02T08:53:14.493Z,36.63
2019-02-02T08:55:51.893Z,34.00
2019-02-02T08:58:25.981Z,36.97
2019-02-02T09:01:04.292Z,35.27
2019-02-02T09:03:37.426Z,35.50
2019-02-02T09:06:12.501Z,35.20
2019-02-02T09:08:47.373Z,37.23
2019-02-02T09:11:24.180Z,35.60
2019-02-02T09:13:59.077Z,36.60
2019-02-02T09:16:33.972Z,36.97
2019-02-02T09:19:08.816Z,35.00
2019-02-02T09:21:43.879Z,37.50
2019-02-02T09:24:19.553Z,37.70
2019-02-02T09:26:55.522Z,35.37
2019-02-02T09:29:31.157Z,35.73
2019-02-02T09:32:09.868Z,36.67
2019-02-02T09:34:45.571Z,36.43
2019-02-02T09:37:21.779Z,34.67
2019-02-02T09:39:56.637Z,34.17
2019-02-02T09:42:31.521Z,36.47
2019-02-02T09:45:09.958Z,36.57
2019-02-02T09:47:44.852Z,34.73
2019-02-02T09:50:23.403Z,36.20
2019-02-02T09:52:58.765Z,36.40
2019-02-02T09:55:35.149Z,35.40
2019-02-02T09:58:12.503Z,36.20
2019-02-02T10:00:47.582Z,38.03
2019-02-02T10:03:22.681Z,36.90
2019-02-02T10:05:59.205Z,36.40
2019-02-02T10:08:34.156Z,34.90
2019-02-02T10:11:09.228Z,36.03
2019-02-02T10:13:45.775Z,35.20
2019-02-02T10:16:20.744Z,36.50
2019-02-02T10:18:55.769Z,34.63
2019-02-02T10:21:30.677Z,37.73
2019-02-02T10:24:05.540Z,36.93
2019-02-02T10:26:40.400Z,34.90
2019-02-02T10:29:15.221Z,38.93
2019-02-02T10:31:50.089Z,37.60
2019-02-02T10:34:25.237Z,36.47
2019-02-02T10:37:00.061Z,37.20
2019-02-02T10:39:35.097Z,36.47
2019-02-02T10:42:10.233Z,36.20
2019-02-02T10:44:45.229Z,37.23
2019-02-02T10:47:20.055Z,36.10
2019-02-02T10:49:54.900Z,34.83
2019-02-02T10:52:29.933Z,34.67
2019-02-02T10:55:05.570Z,36.53
2019-02-02T10:57:40.433Z,37.80
2019-02-02T11:00:19.254Z,36.60
2019-02-02T11:02:54.196Z,38.03
2019-02-02T11:05:29.190Z,35.93
2019-02-02T11:08:04.606Z,38.00
2019-02-02T11:10:39.814Z,35.87
2019-02-02T11:13:16.424Z,36.03
2019-02-02T11:15:52.444Z,38.40
2019-02-02T11:18:28.319Z,38.37
2019-02-02T11:21:06.007Z,37.67
2019-02-02T11:23:40.950Z,35.87
2019-02-02T11:26:15.987Z,38.50
2019-02-02T11:28:50.991Z,38.00
2019-02-02T11:31:25.937Z,39.23
2019-02-02T11:34:00.787Z,36.50
2019-02-02T11:36:35.768Z,37.67
2019-02-02T11:39:11.387Z,36.30
2019-02-02T11:41:46.150Z,36.83
2019-02-02T11:44:20.843Z,36.40
2019-02-02T11:46:55.707Z,37.37
2019-02-02T11:49:30.565Z,38.00
2019-02-02T11:52:05.469Z,38.90
2019-02-02T11:54:40.344Z,38.00
2019-02-02T11:57:15.226Z,38.40
2019-02-02T11:59:50.054Z,38.60
2019-02-02T12:02:24.870Z,36.47
2019-02-02T12:04:59.830Z,40.10
2019-02-02T12:07:35.555Z,39.37
2019-02-02T12:10:12.804Z,39.90
2019-02-02T12:12:48.576Z,39.10
2019-02-02T12:15:23.614Z,39.87
2019-02-02T12:17:58.484Z,41.30
2019-02-02T12:20:33.792Z,39.43
2019-02-02T12:23:08.874Z,40.20
2019-02-02T12:25:43.770Z,40.47
2019-02-02T12:28:18.641Z,40.07
2019-02-02T12:30:53.518Z,40.43
2019-02-02T12:33:29.299Z,38.50
2019-02-02T12:36:05.165Z,42.30
2019-02-02T12:38:40.048Z,40.93
2019-02-02T12:41:17.143Z,41.30
2019-02-02T12:43:54.446Z,39.93
2019-02-02T12:46:29.771Z,42.37
2019-02-02T12:49:07.107Z,42.63
2019-02-02T12:51:42.400Z,39.57
2019-02-02T12:54:17.254Z,40.37
2019-02-02T12:56:52.134Z,41.20
2019-02-02T12:59:27.015Z,42.10
2019-02-02T13:02:02.041Z,40.23
2019-02-02T13:04:40.257Z,40.47
2019-02-02T13:07:16.158Z,42.50
2019-02-02T13:09:51.143Z,41.97
2019-02-02T13:12:26.002Z,41.30
2019-02-02T13:15:01.266Z,40.80
2019-02-02T13:17:36.101Z,42.97
2019-02-02T13:20:12.092Z,42.17
2019-02-02T13:22:47.304Z,42.57
2019-02-02T13:25:24.035Z,42.27
2019-02-02T13:28:04.310Z,44.90
2019-02-02T13:30:39.199Z,43.33
2019-02-02T13:33:14.190Z,43.50
2019-02-02T13:35:50.227Z,38.80
2019-02-02T13:38:24.966Z,42.23
2019-02-02T13:40:59.727Z,45.20
2019-02-02T13:43:34.637Z,43.50
2019-02-02T13:46:09.584Z,43.00
2019-02-02T13:48:44.525Z,43.97
2019-02-02T13:51:19.428Z,44.47
2019-02-02T13:53:54.362Z,45.43
2019-02-02T13:56:29.194Z,45.87
2019-02-02T13:59:04.118Z,47.10
2019-02-02T14:01:42.271Z,43.97
2019-02-02T14:04:15.598Z,45.17
2019-02-02T14:06:54.399Z,46.10
2019-02-02T14:09:37.198Z,46.50
2019-02-02T14:12:12.128Z,46.73
2019-02-02T14:14:47.118Z,45.70
2019-02-02T14:17:21.977Z,48.80
2019-02-02T14:19:56.836Z,47.67
2019-02-02T14:22:31.924Z,48.93
2019-02-02T14:25:07.818Z,48.50
2019-02-02T14:27:43.267Z,50.20
2019-02-02T14:30:23.607Z,47.30
2019-02-02T14:32:58.482Z,48.37
2019-02-02T14:35:33.324Z,46.77
2019-02-02T14:38:08.182Z,49.27
2019-02-02T14:40:45.629Z,50.27
2019-02-02T14:43:20.480Z,50.60
2019-02-02T14:45:55.234Z,49.37
2019-02-02T14:48:30.084Z,50.13
2019-02-02T14:51:05.119Z,50.33
2019-02-02T14:53:40.080Z,50.40
2019-02-02T14:56:14.908Z,48.90
2019-02-02T14:58:49.832Z,48.20
2019-02-02T15:01:24.639Z,49.53
2019-02-02T15:03:59.578Z,48.17
2019-02-02T15:06:34.565Z,50.10
2019-02-02T15:09:10.060Z,49.27
2019-02-02T15:11:44.882Z,50.70
2019-02-02T15:14:19.728Z,49.17
2019-02-02T15:16:54.509Z,49.40
2019-02-02T15:19:29.352Z,50.10
2019-02-02T15:22:04.192Z,50.60
2019-02-02T15:24:39.054Z,51.77
2019-02-02T15:27:14.802Z,50.80
2019-02-02T15:29:49.586Z,50.80
2019-02-02T15:32:24.531Z,50.27
2019-02-02T15:34:59.387Z,49.97
2019-02-02T15:37:34.299Z,53.27
2019-02-02T15:40:10.830Z,49.40
2019-02-02T15:42:45.690Z,50.00
2019-02-02T15:45:23.156Z,51.37
2019-02-02T15:47:58.102Z,50.93
2019-02-02T15:50:33.082Z,50.10
2019-02-02T15:53:07.989Z,49.77
2019-02-02T15:55:43.130Z,50.80
2019-02-02T15:58:18.752Z,50.60
2019-02-02T16:00:54.083Z,48.90
2019-02-02T16:03:29.247Z,51.60
2019-02-02T16:06:04.256Z,49.50
2019-02-02T16:08:39.300Z,49.27
2019-02-02T16:11:14.174Z,51.57
2019-02-02T16:13:48.998Z,53.07
2019-02-02T16:16:23.906Z,52.30
2019-02-02T16:18:58.861Z,52.03
2019-02-02T16:21:35.338Z,55.23
2019-02-02T16:24:13.071Z,51.00
2019-02-02T16:26:48.746Z,50.93
2019-02-02T16:29:23.665Z,52.40
2019-02-02T16:32:03.571Z,49.30
2019-02-02T16:34:38.410Z,52.27
2019-02-02T16:37:14.858Z,49.87
2019-02-02T16:39:49.752Z,49.50
2019-02-02T16:42:24.806Z,52.03
2019-02-02T16:44:59.651Z,54.23
2019-02-02T16:47:34.535Z,53.47
2019-02-02T16:50:12.774Z,52.10
2019-02-02T16:52:48.015Z,52.37
2019-02-02T16:55:22.866Z,51.17
2019-02-02T16:57:57.762Z,55.07
2019-02-02T17:00:33.791Z,54.30
2019-02-02T17:03:11.323Z,50.57
2019-02-02T17:05:46.225Z,51.83
2019-02-02T17:08:21.122Z,50.43
2019-02-02T17:10:55.846Z,48.93
2019-02-02T17:13:31.564Z,52.00
2019-02-02T17:16:06.509Z,52.70
2019-02-02T17:18:41.374Z,53.57
2019-02-02T17:21:16.236Z,52.50
2019-02-02T17:23:51.108Z,52.20
2019-02-02T17:26:26.061Z,52.30
2019-02-02T17:29:00.940Z,53.00
2019-02-02T17:31:35.858Z,57.57
2019-02-02T17:34:10.846Z,55.00
2019-02-02T17:36:45.636Z,56.00
2019-02-02T17:39:20.627Z,54.23
2019-02-02T17:41:55.363Z,56.27
2019-02-02T17:44:30.241Z,56.20
2019-02-02T17:47:05.194Z,54.40
2019-02-02T17:49:40.069Z,54.20
2019-02-02T17:52:16.657Z,58.20
2019-02-02T17:54:51.515Z,58.87
2019-02-02T17:57:26.473Z,55.87
2019-02-02T18:00:01.519Z,56.77
2019-02-02T18:02:36.307Z,55.80
2019-02-02T18:05:11.725Z,55.60
2019-02-02T18:07:46.639Z,59.73
2019-02-02T18:10:21.550Z,55.17
2019-02-02T18:12:56.450Z,59.30
2019-02-02T18:15:31.534Z,55.53
2019-02-02T18:18:06.927Z,54.33
2019-02-02T18:20:41.799Z,52.13
2019-02-02T18:23:18.414Z,52.97
2019-02-02T18:25:58.565Z,57.90
2019-02-02T18:28:33.495Z,57.57
2019-02-02T18:31:08.419Z,57.90
2019-02-02T18:33:43.307Z,56.10
2019-02-02T18:36:18.198Z,53.33
2019-02-02T18:38:53.121Z,57.23
2019-02-02T18:41:27.958Z,56.73
2019-02-02T18:44:03.109Z,58.13
2019-02-02T18:46:38.178Z,59.60
2019-02-02T18:49:13.038Z,57.50
2019-02-02T18:51:47.909Z,53.67
2019-02-02T18:54:22.771Z,51.80
2019-02-02T18:56:58.596Z,55.20
2019-02-02T18:59:33.569Z,52.90
2019-02-02T19:02:08.499Z,57.00
2019-02-02T19:04:43.469Z,55.50
2019-02-02T19:07:18.514Z,59.87
2019-02-02T19:09:54.363Z,62.40
2019-02-02T19:12:31.718Z,59.10
2019-02-02T19:15:08.811Z,53.90
2019-02-02T19:17:43.881Z,54.37
2019-02-02T19:20:20.517Z,55.20
2019-02-02T19:22:57.142Z,54.03
2019-02-02T19:25:33.425Z,52.30
2019-02-02T19:28:09.475Z,53.13
2019-02-02T19:30:44.411Z,54.23
2019-02-02T19:33:19.307Z,53.77
2019-02-02T19:35:54.189Z,53.20
2019-02-02T19:38:29.083Z,54.63
2019-02-02T19:41:04.940Z,55.70
2019-02-02T19:43:39.811Z,53.57
2019-02-02T19:46:14.604Z,58.60
2019-02-02T19:48:49.493Z,54.17
2019-02-02T19:51:24.347Z,59.60
2019-02-02T19:53:59.139Z,60.10
2019-02-02T19:56:34.057Z,62.37
2019-02-02T19:59:08.831Z,60.50
2019-02-02T20:01:43.684Z,59.87
2019-02-02T20:04:18.529Z,62.90
2019-02-02T20:06:53.440Z,58.47
2019-02-02T20:09:28.394Z,59.10
2019-02-02T20:12:03.294Z,59.10
2019-02-02T20:14:38.156Z,58.97
2019-02-02T20:17:14.652Z,62.77
2019-02-02T20:19:49.633Z,58.43
2019-02-02T20:22:24.535Z,58.00
2019-02-02T20:24:59.393Z,57.97
2019-02-02T20:27:34.305Z,55.80
2019-02-02T20:30:16.009Z,58.37
2019-02-02T20:32:50.839Z,59.77
2019-02-02T20:35:25.940Z,59.63
2019-02-02T20:38:00.671Z,64.37
2019-02-02T20:40:35.527Z,59.77
2019-02-02T20:43:10.378Z,60.90
2019-02-02T20:45:45.231Z,60.43
2019-02-02T20:48:20.118Z,58.37
2019-02-02T20:50:54.889Z,64.30
2019-02-02T20:53:29.745Z,63.50
2019-02-02T20:56:04.631Z,60.93
2019-02-02T20:58:39.481Z,62.33
2019-02-02T21:01:14.361Z,59.40
2019-02-02T21:03:49.103Z,66.27
2019-02-02T21:06:24.072Z,62.53
2019-02-02T21:08:58.929Z,64.20
2019-02-02T21:11:34.467Z,57.33
2019-02-02T21:14:09.264Z,58.10
2019-02-02T21:16:45.087Z,56.67
2019-02-02T21:19:19.907Z,54.90
2019-02-02T21:21:54.690Z,62.23
2019-02-02T21:24:29.532Z,58.90
2019-02-02T21:27:04.486Z,59.43
2019-02-02T21:29:39.242Z,55.80
2019-02-02T21:32:14.171Z,57.77
2019-02-02T21:34:48.924Z,54.67
2019-02-02T21:37:23.839Z,55.10
2019-02-02T21:39:59.107Z,53.33
2019-02-02T21:42:35.086Z,57.77
2019-02-02T21:45:11.733Z,57.27
2019-02-02T21:47:49.574Z,57.13
2019-02-02T21:50:25.139Z,59.87
2019-02-02T21:53:00.204Z,57.40
2019-02-02T21:55:35.076Z,54.60
2019-02-02T21:58:09.967Z,56.80
2019-02-02T22:00:45.199Z,54.87
2019-02-02T22:03:20.174Z,56.53
2019-02-02T22:05:54.953Z,51.57
2019-02-02T22:08:30.223Z,50.37
2019-02-02T22:11:05.097Z,50.30
2019-02-02T22:13:39.985Z,48.87
2019-02-02T22:16:14.833Z,52.50
2019-02-02T22:18:49.685Z,47.27
2019-02-02T22:21:24.437Z,49.97
2019-02-02T22:24:01.761Z,51.30
2019-02-02T22:26:38.664Z,46.10
2019-02-02T22:29:14.085Z,49.67
2019-02-02T22:31:49.026Z,51.77
2019-02-02T22:34:25.009Z,51.27
2019-02-02T22:37:00.014Z,49.20
2019-02-02T22:39:34.911Z,51.77
2019-02-02T22:42:09.757Z,49.27
2019-02-02T22:44:44.499Z,48.20
2019-02-02T22:47:19.330Z,47.37
2019-02-02T22:49:54.323Z,47.50
2019-02-02T22:52:29.184Z,45.37
2019-02-02T22:55:05.364Z,50.20
2019-02-02T22:57:40.256Z,49.83
2019-02-02T23:00:58.284Z,51.27
2019-02-02T23:04:04.766Z,44.83
2019-02-02T23:07:52.835Z,47.80
2019-02-02T23:11:23.314Z,49.30
2019-02-02T23:14:50.933Z,46.07
2019-02-02T23:17:25.776Z,45.67
2019-02-02T23:20:00.955Z,48.27
2019-02-02T23:22:36.942Z,47.10
2019-02-02T23:25:11.799Z,45.87
2019-02-02T23:27:46.650Z,45.67
2019-02-02T23:30:21.990Z,45.80
2019-02-02T23:32:56.855Z,44.60
2019-02-02T23:35:31.754Z,46.83
2019-02-02T23:38:06.724Z,45.57
2019-02-02T23:40:41.732Z,43.67
2019-02-02T23:43:16.502Z,42.60
2019-02-02T23:45:51.332Z,44.43
2019-02-02T23:48:26.160Z,43.33
2019-02-02T23:51:00.898Z,44.70
2019-02-02T23:53:35.715Z,46.50
2019-02-02T23:56:10.539Z,43.20
2019-02-02T23:58:45.305Z,43.30
